Time;durP1;ratioP1;P1;durP2;ratioP2;P2;SDS_P1;SDS_P2;PMS_P1;PMS_P2;Temp;Humidity;BMP_temperature;BMP_pressure;BME280_temperature;BME280_humidity;BME280_pressure;Samples;Min_cycle;Max_cycle;Signal;HPM_P1;HPM_P2
2023/07/19 00:00:15;;;;;;;9.23;4.20;;;21.20;96.10;;;;;;5045323;28;20025;-79
2023/07/19 00:02:40;;;;;;;7.40;4.15;;;21.30;96.20;;;;;;5048999;28;20447;-79
2023/07/19 00:05:08;;;;;;;8.38;4.03;;;21.20;96.10;;;;;;5049576;28;20100;-79
2023/07/19 00:07:34;;;;;;;7.43;3.92;;;21.30;96.10;;;;;;5047693;28;20096;-79
2023/07/19 00:10:00;;;;;;;8.15;4.18;;;21.30;96.10;;;;;;5049683;28;20436;-79
2023/07/19 00:12:25;;;;;;;8.00;4.15;;;21.30;96.10;;;;;;5044487;28;20024;-79
2023/07/19 00:14:51;;;;;;;8.85;4.20;;;21.30;96.20;;;;;;5051674;28;20022;-79
2023/07/19 00:17:16;;;;;;;8.10;4.00;;;21.20;96.30;;;;;;5045286;28;20082;-79
2023/07/19 00:19:42;;;;;;;6.90;4.10;;;21.20;96.30;;;;;;5047585;28;20025;-79
2023/07/19 00:22:08;;;;;;;11.63;4.22;;;21.20;96.30;;;;;;5046240;28;20033;-79
2023/07/19 00:24:34;;;;;;;18.02;4.78;;;21.20;96.30;;;;;;5042440;28;20074;-79
2023/07/19 00:27:00;;;;;;;16.60;4.38;;;21.20;96.20;;;;;;5046205;28;20104;-79
2023/07/19 00:29:26;;;;;;;7.25;4.15;;;21.20;96.30;;;;;;5042324;28;20025;-79
2023/07/19 00:31:51;;;;;;;9.20;3.78;;;21.20;96.20;;;;;;5040789;28;20025;-78
2023/07/19 00:34:17;;;;;;;8.82;4.13;;;21.20;96.30;;;;;;5020262;28;20021;-79
2023/07/19 00:36:43;;;;;;;8.13;3.67;;;21.20;96.30;;;;;;5040935;28;20075;-79
2023/07/19 00:39:09;;;;;;;8.05;3.97;;;21.20;96.30;;;;;;5045967;28;20023;-79
2023/07/19 00:41:35;;;;;;;9.30;4.40;;;21.20;96.30;;;;;;5029811;28;20429;-79
2023/07/19 00:44:00;;;;;;;16.65;4.72;;;21.20;96.40;;;;;;5046571;28;20072;-79
2023/07/19 00:46:27;;;;;;;9.52;4.10;;;21.20;96.40;;;;;;5041316;28;20021;-79
2023/07/19 00:48:53;;;;;;;13.55;4.03;;;21.20;96.40;;;;;;5039533;28;20063;-79
2023/07/19 00:51:20;;;;;;;10.98;4.13;;;21.20;96.40;;;;;;5043239;28;20122;-79
2023/07/19 00:53:48;;;;;;;10.05;4.47;;;21.20;96.50;;;;;;5041035;28;20109;-80
2023/07/19 00:56:14;;;;;;;15.90;4.47;;;21.20;96.40;;;;;;5044719;28;20087;-79
2023/07/19 00:58:41;;;;;;;9.98;4.65;;;21.20;96.40;;;;;;5047259;28;20029;-79
2023/07/19 01:01:06;;;;;;;8.80;4.30;;;21.20;96.40;;;;;;5044442;28;20032;-79
2023/07/19 01:03:33;;;;;;;8.35;4.40;;;21.20;96.50;;;;;;5040338;28;20025;-79
2023/07/19 01:05:59;;;;;;;10.85;3.95;;;21.20;96.50;;;;;;5040641;28;20171;-79
2023/07/19 01:08:26;;;;;;;12.77;3.97;;;21.20;96.50;;;;;;5043115;28;20104;-78
2023/07/19 01:10:52;;;;;;;9.80;4.30;;;21.20;96.50;;;;;;5040704;28;20164;-79
2023/07/19 01:13:17;;;;;;;8.98;4.70;;;21.20;96.40;;;;;;5029403;28;20024;-79
2023/07/19 01:15:43;;;;;;;7.53;4.22;;;21.20;96.50;;;;;;5045076;28;20021;-79
2023/07/19 01:18:09;;;;;;;7.97;4.43;;;21.20;96.50;;;;;;5041528;28;20504;-79
2023/07/19 01:20:34;;;;;;;13.27;3.97;;;21.20;96.50;;;;;;5037254;28;20031;-79
2023/07/19 01:23:01;;;;;;;7.00;4.00;;;21.20;96.50;;;;;;5040048;28;20479;-79
2023/07/19 01:25:26;;;;;;;5.63;3.63;;;21.20;96.80;;;;;;5043236;28;20044;-79
2023/07/19 01:27:52;;;;;;;11.27;4.00;;;21.20;96.40;;;;;;5042501;28;20122;-79
2023/07/19 01:30:18;;;;;;;11.25;4.38;;;21.20;96.40;;;;;;5048599;28;20017;-79
2023/07/19 01:32:46;;;;;;;9.80;3.95;;;21.20;96.40;;;;;;5039153;28;20048;-79
2023/07/19 01:35:12;;;;;;;10.60;4.60;;;21.20;96.50;;;;;;5036978;28;20031;-79
2023/07/19 01:37:39;;;;;;;7.22;3.95;;;21.10;96.40;;;;;;5037159;28;20032;-79
2023/07/19 01:40:06;;;;;;;9.57;4.88;;;21.10;96.40;;;;;;5045404;28;20497;-79
2023/07/19 01:42:31;;;;;;;7.53;4.22;;;21.10;96.40;;;;;;5046775;28;20550;-79
2023/07/19 01:44:59;;;;;;;13.30;4.82;;;21.20;96.50;;;;;;5044362;28;20037;-79
2023/07/19 01:47:25;;;;;;;11.77;4.22;;;21.20;96.40;;;;;;5042369;28;20039;-79
2023/07/19 01:49:50;;;;;;;18.25;4.15;;;21.10;96.40;;;;;;5039484;28;20049;-79
2023/07/19 01:52:16;;;;;;;6.88;4.10;;;21.20;96.40;;;;;;5037392;28;20026;-79
2023/07/19 01:54:42;;;;;;;15.73;4.22;;;21.10;96.40;;;;;;5038586;28;20029;-79
2023/07/19 01:57:07;;;;;;;16.55;4.40;;;21.10;96.40;;;;;;5040979;28;20020;-79
2023/07/19 01:59:33;;;;;;;9.00;3.85;;;21.10;96.40;;;;;;5045205;28;20489;-79
2023/07/19 02:01:59;;;;;;;12.05;4.18;;;21.10;96.40;;;;;;5025432;28;20043;-79
2023/07/19 02:04:24;;;;;;;9.07;3.97;;;21.10;96.40;;;;;;5033460;28;20033;-79
2023/07/19 02:06:50;;;;;;;12.02;4.03;;;21.10;96.40;;;;;;5038704;28;20112;-79
2023/07/19 02:09:16;;;;;;;7.15;4.28;;;21.10;96.40;;;;;;5036567;28;20033;-79
2023/07/19 02:11:41;;;;;;;9.98;4.22;;;21.10;96.40;;;;;;5043947;28;20018;-79
2023/07/19 02:14:07;;;;;;;11.43;5.00;;;21.10;96.40;;;;;;5042727;28;20033;-79
2023/07/19 02:16:33;;;;;;;5.47;3.95;;;21.20;96.40;;;;;;5049058;28;20024;-79
2023/07/19 02:18:58;;;;;;;6.50;4.47;;;21.10;96.40;;;;;;5047054;28;20040;-79
2023/07/19 02:21:24;;;;;;;7.90;4.43;;;21.10;96.40;;;;;;5040401;28;20037;-79
2023/07/19 02:23:50;;;;;;;8.98;4.53;;;21.10;96.40;;;;;;5041879;28;20031;-79
2023/07/19 02:26:15;;;;;;;7.63;4.45;;;21.10;96.30;;;;;;5040383;28;20033;-79
2023/07/19 02:28:41;;;;;;;6.22;4.07;;;21.20;96.40;;;;;;5039667;28;20029;-79
2023/07/19 02:31:07;;;;;;;6.80;4.50;;;21.10;96.40;;;;;;5045436;28;20033;-79
2023/07/19 02:33:33;;;;;;;8.90;4.25;;;21.10;96.40;;;;;;5026573;28;20021;-79
2023/07/19 02:35:58;;;;;;;10.95;4.32;;;21.10;96.40;;;;;;5045114;28;20483;-79
2023/07/19 02:38:25;;;;;;;12.77;4.65;;;21.10;96.40;;;;;;5046346;28;20039;-79
2023/07/19 02:41:00;;;;;;;10.90;5.00;;;21.10;96.50;;;;;;5043564;28;20104;-79
2023/07/19 02:43:26;;;;;;;10.70;4.60;;;21.10;96.50;;;;;;5043763;28;20497;-79
2023/07/19 02:45:53;;;;;;;10.88;4.05;;;21.10;96.50;;;;;;5040445;28;20029;-79
2023/07/19 02:48:19;;;;;;;10.15;4.43;;;21.10;96.50;;;;;;5044258;28;20112;-79
2023/07/19 02:50:49;;;;;;;11.45;4.35;;;21.10;96.50;;;;;;5029978;28;20052;-79
2023/07/19 02:53:15;;;;;;;;;;;21.10;96.50;;;;;;5040507;28;20025;-80
2023/07/19 02:55:43;;;;;;;11.50;4.88;;;21.10;96.50;;;;;;5044497;28;19909;-79
2023/07/19 02:58:09;;;;;;;10.13;4.95;;;21.10;96.60;;;;;;5044539;28;20473;-80
2023/07/19 03:00:39;;;;;;;14.40;5.15;;;21.10;96.70;;;;;;5045166;28;20119;-80
2023/07/19 03:03:05;;;;;;;11.40;5.35;;;21.10;96.70;;;;;;5043885;28;20113;-80
2023/07/19 03:05:31;;;;;;;10.60;5.28;;;21.10;96.70;;;;;;5045824;28;20101;-80
2023/07/19 03:07:56;;;;;;;7.85;4.40;;;21.10;96.70;;;;;;5043737;28;20477;-80
2023/07/19 03:10:22;;;;;;;13.02;4.90;;;21.10;96.70;;;;;;5044677;28;20021;-80
2023/07/19 03:12:47;;;;;;;9.20;4.45;;;21.10;96.70;;;;;;5043536;28;20105;-80
2023/07/19 03:15:13;;;;;;;13.70;4.28;;;21.10;96.70;;;;;;5027508;28;20021;-80
2023/07/19 03:17:39;;;;;;;10.90;4.70;;;21.10;96.70;;;;;;5045945;28;20104;-80
2023/07/19 03:20:06;;;;;;;10.00;5.00;;;21.10;96.70;;;;;;5043155;28;20509;-80
2023/07/19 03:22:32;;;;;;;9.23;4.25;;;21.10;96.70;;;;;;5044439;28;20079;-80
2023/07/19 03:24:57;;;;;;;10.10;4.68;;;21.10;96.70;;;;;;5043193;28;20028;-80
2023/07/19 03:27:23;;;;;;;17.60;4.88;;;21.10;96.70;;;;;;5042317;28;20029;-80
2023/07/19 03:29:51;;;;;;;9.65;4.88;;;21.10;96.70;;;;;;5029885;28;20388;-80
2023/07/19 03:32:17;;;;;;;8.70;4.72;;;21.10;96.70;;;;;;5040773;28;20024;-79
2023/07/19 03:34:43;;;;;;;9.57;4.10;;;21.10;96.80;;;;;;5039925;28;20021;-79
2023/07/19 03:37:08;;;;;;;11.98;4.47;;;21.10;96.80;;;;;;5041418;28;20018;-80
2023/07/19 03:39:34;;;;;;;9.95;4.57;;;21.10;96.80;;;;;;5040089;28;20513;-80
2023/07/19 03:41:59;;;;;;;9.45;4.68;;;21.10;96.80;;;;;;5039310;28;20021;-80
2023/07/19 03:44:25;;;;;;;9.65;4.53;;;21.10;96.80;;;;;;5038295;28;20036;-80
2023/07/19 03:46:50;;;;;;;8.07;4.63;;;21.10;96.80;;;;;;5042103;28;20021;-80
2023/07/19 03:49:16;;;;;;;13.10;5.20;;;21.10;96.80;;;;;;5041910;28;20021;-80
2023/07/19 03:51:42;;;;;;;9.60;4.57;;;21.10;96.80;;;;;;5036730;28;20092;-80
2023/07/19 03:54:08;;;;;;;8.70;4.60;;;21.10;96.70;;;;;;5036244;28;20021;-80
2023/07/19 03:56:33;;;;;;;10.23;4.72;;;21.10;96.70;;;;;;5038096;28;20100;-81
2023/07/19 03:58:59;;;;;;;8.68;4.45;;;21.10;96.70;;;;;;5036387;28;20115;-81
2023/07/19 04:01:25;;;;;;;9.23;4.35;;;21.10;96.80;;;;;;5018178;28;20037;-80
2023/07/19 04:03:50;;;;;;;13.80;4.85;;;21.10;96.80;;;;;;5042401;28;20434;-80
2023/07/19 04:06:16;;;;;;;13.30;4.70;;;21.10;96.80;;;;;;5045215;28;20075;-80
2023/07/19 04:08:41;;;;;;;12.52;4.10;;;21.10;96.80;;;;;;5038843;28;20025;-80
2023/07/19 04:11:07;;;;;;;15.88;5.15;;;21.10;96.80;;;;;;5037717;28;20021;-80
2023/07/19 04:13:32;;;;;;;13.02;4.47;;;21.10;96.70;;;;;;5038468;28;20107;-79
2023/07/19 04:15:58;;;;;;;8.10;4.80;;;21.20;96.70;;;;;;5035037;28;20040;-80
2023/07/19 04:18:24;;;;;;;12.30;4.93;;;21.10;97.00;;;;;;5032034;28;20021;-80
2023/07/19 04:20:55;;;;;;;17.75;4.95;;;21.10;96.70;;;;;;5034854;28;20154;-80
2023/07/19 04:23:21;;;;;;;11.05;4.82;;;21.10;96.70;;;;;;5053245;28;20417;-80
2023/07/19 04:25:46;;;;;;;7.97;4.43;;;21.10;96.70;;;;;;5056852;28;20021;-80
2023/07/19 04:28:12;;;;;;;7.93;4.47;;;21.00;96.70;;;;;;5053363;28;20025;-79
2023/07/19 04:30:37;;;;;;;9.60;4.32;;;21.10;96.80;;;;;;5053082;28;20062;-80
2023/07/19 04:33:04;;;;;;;9.25;4.57;;;21.10;96.70;;;;;;5058348;28;20024;-79
2023/07/19 04:35:30;;;;;;;11.57;5.13;;;21.00;96.70;;;;;;5056892;28;20010;-80
2023/07/19 04:37:55;;;;;;;6.60;4.60;;;21.10;96.80;;;;;;5055052;28;20075;-80
2023/07/19 04:40:21;;;;;;;11.07;4.45;;;21.10;96.80;;;;;;5055928;28;20048;-80
2023/07/19 04:42:48;;;;;;;9.70;4.45;;;21.10;96.80;;;;;;5055872;28;20009;-80
2023/07/19 04:45:14;;;;;;;11.32;4.78;;;21.10;96.80;;;;;;5053932;28;20045;-79
2023/07/19 04:47:40;;;;;;;9.73;4.65;;;21.10;96.90;;;;;;5052968;28;20047;-79
2023/07/19 04:50:07;;;;;;;9.20;4.63;;;21.10;96.90;;;;;;5058796;28;20028;-80
2023/07/19 04:52:33;;;;;;;7.55;4.90;;;21.10;97.00;;;;;;5060009;28;20528;-80
2023/07/19 04:54:59;;;;;;;15.85;5.22;;;21.10;96.90;;;;;;5053793;28;20016;-80
2023/07/19 04:57:24;;;;;;;11.32;5.05;;;21.10;96.90;;;;;;5056231;28;20013;-80
2023/07/19 04:59:50;;;;;;;10.88;5.13;;;21.10;96.90;;;;;;5053171;28;20024;-80
2023/07/19 05:02:15;;;;;;;14.98;4.53;;;21.10;96.90;;;;;;5056385;28;20041;-80
2023/07/19 05:04:41;;;;;;;6.10;4.15;;;21.00;96.90;;;;;;5060846;28;20079;-80
2023/07/19 05:07:06;;;;;;;12.10;4.57;;;21.10;96.90;;;;;;5062559;28;20682;-80
2023/07/19 05:09:32;;;;;;;12.68;4.82;;;21.10;96.90;;;;;;5060854;28;20051;-80
2023/07/19 05:11:57;;;;;;;11.57;5.15;;;21.10;96.90;;;;;;5057031;28;20016;-80
2023/07/19 05:14:23;;;;;;;19.63;5.18;;;21.10;96.90;;;;;;5061026;28;20024;-80
2023/07/19 05:16:50;;;;;;;15.70;5.18;;;21.10;96.90;;;;;;5042682;28;20059;-80
2023/07/19 05:19:15;;;;;;;10.57;4.90;;;21.10;96.90;;;;;;5061313;28;20081;-79
2023/07/19 05:21:41;;;;;;;10.10;4.47;;;21.10;96.90;;;;;;5057873;28;20488;-81
2023/07/19 05:24:07;;;;;;;7.70;4.20;;;21.10;97.00;;;;;;5041255;28;20547;-80
2023/07/19 05:26:38;;;;;;;11.55;4.68;;;21.10;96.90;;;;;;5040702;28;20040;-81
2023/07/19 05:29:03;;;;;;;11.35;4.47;;;21.10;96.90;;;;;;5028145;28;20021;-80
2023/07/19 05:31:29;;;;;;;13.80;4.00;;;21.10;96.90;;;;;;5043194;28;20036;-81
2023/07/19 05:33:55;;;;;;;7.75;4.10;;;21.10;96.90;;;;;;5047583;28;20029;-80
2023/07/19 05:36:20;;;;;;;14.60;4.63;;;21.20;97.00;;;;;;5046542;28;20254;-80
2023/07/19 05:38:46;;;;;;;10.18;4.32;;;21.20;96.90;;;;;;5044851;28;20631;-80
2023/07/19 05:41:11;;;;;;;13.00;4.75;;;21.20;96.90;;;;;;5042994;28;20017;-80
2023/07/19 05:43:37;;;;;;;8.80;4.45;;;21.20;96.90;;;;;;5043082;28;20075;-81
2023/07/19 05:46:04;;;;;;;8.82;3.97;;;21.20;96.90;;;;;;5025100;28;20445;-81
2023/07/19 05:48:30;;;;;;;8.93;4.70;;;21.70;97.00;;;;;;5027140;28;20028;-81
2023/07/19 05:50:55;;;;;;;7.47;3.83;;;21.20;96.90;;;;;;5043025;28;20017;-80
2023/07/19 05:53:21;;;;;;;13.18;3.70;;;21.20;96.90;;;;;;5039659;28;20458;-81
2023/07/19 05:55:46;;;;;;;13.90;3.88;;;21.20;96.90;;;;;;5047188;28;20067;-81
2023/07/19 05:58:12;;;;;;;6.28;3.47;;;21.30;96.90;;;;;;5048063;28;20473;-81
2023/07/19 06:00:40;;;;;;;6.75;3.65;;;21.20;96.80;;;;;;5024046;28;20061;-81
2023/07/19 06:03:05;;;;;;;5.93;3.33;;;21.20;96.80;;;;;;5045894;28;20025;-81
2023/07/19 06:05:32;;;;;;;12.20;4.30;;;21.20;96.70;;;;;;5047540;28;20045;-81
2023/07/19 06:07:57;;;;;;;9.73;3.53;;;21.20;96.60;;;;;;5045750;28;20461;-80
2023/07/19 06:10:23;;;;;;;10.32;3.72;;;21.30;96.70;;;;;;5043543;28;20039;-81
2023/07/19 06:12:49;;;;;;;9.80;4.07;;;21.30;96.60;;;;;;5039786;28;20025;-81
2023/07/19 06:15:15;;;;;;;6.85;3.60;;;21.30;96.60;;;;;;5049580;28;20040;-81
2023/07/19 06:17:42;;;;;;;10.57;4.50;;;21.30;96.60;;;;;;5043563;28;20025;-80
2023/07/19 06:20:10;;;;;;;10.05;3.40;;;21.30;96.50;;;;;;5028243;28;20060;-81
2023/07/19 06:22:36;;;;;;;9.48;3.40;;;21.30;96.60;;;;;;5050773;28;20044;-80
2023/07/19 06:25:01;;;;;;;6.07;3.25;;;21.30;97.00;;;;;;5060619;28;20539;-81
2023/07/19 06:27:27;;;;;;;4.90;2.90;;;21.30;96.70;;;;;;5051372;28;20073;-82
2023/07/19 06:29:53;;;;;;;6.53;3.00;;;21.30;96.70;;;;;;5049900;28;20037;-80
2023/07/19 06:32:18;;;;;;;8.57;3.45;;;21.40;96.70;;;;;;5062150;28;20108;-81
2023/07/19 06:34:44;;;;;;;7.25;3.33;;;21.30;96.70;;;;;;5061467;28;20036;-80
2023/07/19 06:37:09;;;;;;;9.75;3.00;;;21.40;96.60;;;;;;5060498;28;20017;-81
2023/07/19 06:39:35;;;;;;;15.63;3.67;;;21.40;96.60;;;;;;5062523;28;20039;-81
2023/07/19 06:42:01;;;;;;;7.55;3.17;;;21.40;96.70;;;;;;5064415;28;20393;-80
2023/07/19 06:44:26;;;;;;;6.53;3.47;;;21.30;96.60;;;;;;5061192;28;20158;-80
2023/07/19 06:46:52;;;;;;;7.03;2.67;;;21.30;96.70;;;;;;5060931;28;20025;-81
2023/07/19 06:49:19;;;;;;;8.65;2.83;;;21.40;96.80;;;;;;5059313;28;20032;-80
2023/07/19 06:51:44;;;;;;;11.45;3.10;;;21.30;96.70;;;;;;5046338;28;20021;-81
2023/07/19 06:54:10;;;;;;;9.88;3.25;;;21.40;96.70;;;;;;5060412;28;20016;-81
2023/07/19 06:56:35;;;;;;;7.68;2.63;;;21.30;96.60;;;;;;5058116;28;20588;-81
2023/07/19 06:59:01;;;;;;;5.78;3.25;;;21.30;96.60;;;;;;5063722;28;20104;-81
2023/07/19 07:01:27;;;;;;;3.65;2.92;;;21.40;96.60;;;;;;5059569;28;20637;-82
2023/07/19 07:03:52;;;;;;;7.45;3.13;;;21.40;96.60;;;;;;5066045;28;20488;-80
2023/07/19 07:06:18;;;;;;;6.40;3.13;;;21.40;96.50;;;;;;5060767;28;20545;-80
2023/07/19 07:08:44;;;;;;;6.18;3.42;;;21.40;96.40;;;;;;5059390;28;20027;-80
2023/07/19 07:11:10;;;;;;;9.90;3.03;;;21.40;96.30;;;;;;5059302;28;20024;-81
2023/07/19 07:13:35;;;;;;;7.97;3.17;;;21.40;96.30;;;;;;5061753;28;20074;-81
2023/07/19 07:16:02;;;;;;;8.15;3.20;;;21.40;96.30;;;;;;5063210;28;20031;-80
2023/07/19 07:18:28;;;;;;;5.95;3.55;;;21.40;96.30;;;;;;5058987;28;20032;-81
2023/07/19 07:20:53;;;;;;;5.00;2.83;;;21.40;96.40;;;;;;5064122;28;20032;-80
2023/07/19 07:23:19;;;;;;;5.68;2.67;;;21.40;96.40;;;;;;5046328;28;20092;-80
2023/07/19 07:25:45;;;;;;;5.97;2.95;;;21.40;96.20;;;;;;5041249;28;20029;-80
2023/07/19 07:28:10;;;;;;;10.55;2.90;;;21.40;96.30;;;;;;5037250;28;20491;-80
2023/07/19 07:30:37;;;;;;;7.75;3.03;;;21.40;96.20;;;;;;5038121;28;20506;-81
2023/07/19 07:33:03;;;;;;;11.23;3.30;;;21.40;96.30;;;;;;5037938;28;20021;-80
2023/07/19 07:35:29;;;;;;;4.85;2.50;;;21.40;96.30;;;;;;5026458;28;20021;-81
2023/07/19 07:37:55;;;;;;;5.75;2.83;;;21.40;96.40;;;;;;5047677;28;20077;-80
2023/07/19 07:40:21;;;;;;;4.00;2.38;;;21.40;96.40;;;;;;5038007;28;20805;-80
2023/07/19 07:42:46;;;;;;;8.18;2.88;;;21.40;96.40;;;;;;5042214;28;20040;-81
2023/07/19 07:45:12;;;;;;;5.28;2.80;;;21.40;96.40;;;;;;5027172;28;20445;-80
2023/07/19 07:47:38;;;;;;;6.53;2.80;;;21.40;96.30;;;;;;5037214;28;20539;-80
2023/07/19 07:50:08;;;;;;;5.30;2.67;;;21.40;96.10;;;;;;5047918;28;20024;-81
2023/07/19 07:52:34;;;;;;;6.45;2.58;;;21.40;96.20;;;;;;5041560;28;20017;-81
2023/07/19 07:55:00;;;;;;;6.35;2.35;;;21.40;96.00;;;;;;5022646;28;20098;-80
2023/07/19 07:57:25;;;;;;;4.90;2.65;;;21.40;95.90;;;;;;5043379;28;20029;-81
2023/07/19 07:59:51;;;;;;;4.35;3.08;;;21.40;95.90;;;;;;5041770;28;20393;-81
2023/07/19 08:02:17;;;;;;;6.75;2.65;;;21.40;96.10;;;;;;5041253;28;20386;-80
2023/07/19 08:04:42;;;;;;;9.85;2.67;;;21.40;95.90;;;;;;5024019;28;20048;-80
2023/07/19 08:07:08;;;;;;;8.35;2.55;;;21.40;95.90;;;;;;5039787;28;20485;-81
2023/07/19 08:09:34;;;;;;;3.38;2.15;;;21.40;96.00;;;;;;5038382;28;20025;-81
2023/07/19 08:11:59;;;;;;;6.53;2.72;;;21.40;95.90;;;;;;5038766;28;20021;-80
2023/07/19 08:14:25;;;;;;;4.57;2.67;;;21.50;96.00;;;;;;5043061;28;20031;-80
2023/07/19 08:16:53;;;;;;;8.73;2.78;;;21.50;96.00;;;;;;5043044;28;20025;-81
2023/07/19 08:19:19;;;;;;;5.43;2.80;;;21.50;96.10;;;;;;5044851;28;20647;-81
2023/07/19 08:21:44;;;;;;;5.35;3.20;;;21.40;95.90;;;;;;5020730;28;20025;-81
2023/07/19 08:24:11;;;;;;;3.72;2.20;;;21.50;95.80;;;;;;5065507;28;20107;-81
2023/07/19 08:26:37;;;;;;;4.75;2.42;;;21.50;95.70;;;;;;5063400;28;20180;-81
2023/07/19 08:29:03;;;;;;;4.35;2.17;;;21.50;95.90;;;;;;5059710;28;20040;-81
2023/07/19 08:31:28;;;;;;;8.65;2.90;;;21.50;96.00;;;;;;5041699;28;20013;-80
2023/07/19 08:33:54;;;;;;;4.38;2.50;;;21.50;96.00;;;;;;5044559;28;20027;-81
2023/07/19 08:36:20;;;;;;;7.22;2.63;;;21.50;96.00;;;;;;5058778;28;20021;-81
2023/07/19 08:38:46;;;;;;;3.75;2.60;;;21.50;96.00;;;;;;5063791;28;20536;-80
2023/07/19 08:41:12;;;;;;;7.68;2.80;;;21.50;96.00;;;;;;5063907;28;20025;-81
2023/07/19 08:43:38;;;;;;;3.10;2.13;;;21.50;96.00;;;;;;5060684;28;20031;-81
2023/07/19 08:46:04;;;;;;;6.25;2.65;;;21.50;96.00;;;;;;5051746;28;20077;-81
2023/07/19 08:48:35;;;;;;;8.00;2.42;;;21.50;96.00;;;;;;5057471;28;20021;-81
2023/07/19 08:51:02;;;;;;;7.80;2.58;;;21.50;95.80;;;;;;5062074;28;20532;-80
2023/07/19 08:53:28;;;;;;;4.18;2.20;;;21.50;95.60;;;;;;5058777;28;20086;-80
2023/07/19 08:55:54;;;;;;;13.45;2.45;;;21.50;95.90;;;;;;5041402;28;20457;-80
2023/07/19 08:58:20;;;;;;;7.57;2.65;;;21.50;95.70;;;;;;5060063;28;20032;-81
2023/07/19 09:00:48;;;;;;;4.20;2.80;;;21.40;95.40;;;;;;5058294;28;20425;-80
2023/07/19 09:03:14;;;;;;;7.43;2.70;;;21.50;95.60;;;;;;5063620;28;20021;-80
2023/07/19 09:05:40;;;;;;;3.92;2.67;;;21.50;95.20;;;;;;5065540;28;20036;-80
2023/07/19 09:08:09;;;;;;;4.07;2.08;;;21.40;95.60;;;;;;5067480;28;20024;-80
2023/07/19 09:10:35;;;;;;;5.20;2.30;;;21.50;95.30;;;;;;5070002;28;20047;-80
2023/07/19 09:13:06;;;;;;;6.63;2.63;;;21.50;95.20;;;;;;5063551;28;20035;-81
2023/07/19 09:15:35;;;;;;;8.23;1.98;;;21.40;95.70;;;;;;5064127;28;20017;-80
2023/07/19 09:18:04;;;;;;;11.27;2.30;;;21.50;95.60;;;;;;5066100;28;20413;-80
2023/07/19 09:20:30;;;;;;;3.45;2.17;;;21.50;95.50;;;;;;5052211;28;20025;-80
2023/07/19 09:22:57;;;;;;;3.15;1.80;;;21.40;95.10;;;;;;5062018;28;20118;-79
2023/07/19 09:25:23;;;;;;;7.18;2.42;;;21.50;95.00;;;;;;5045683;28;20115;-80
2023/07/19 09:27:49;;;;;;;5.53;2.08;;;21.50;95.50;;;;;;5071661;28;20104;-79
2023/07/19 09:30:15;;;;;;;3.60;1.90;;;21.50;95.30;;;;;;5065544;28;20381;-80
2023/07/19 09:32:41;;;;;;;4.43;1.98;;;21.50;95.40;;;;;;5068948;28;20091;-80
2023/07/19 09:35:08;;;;;;;11.95;2.45;;;21.50;95.30;;;;;;5069316;28;20020;-80
2023/07/19 09:37:34;;;;;;;7.65;1.80;;;21.50;95.10;;;;;;5071384;28;20020;-80
2023/07/19 09:40:04;;;;;;;8.25;2.00;;;21.50;94.90;;;;;;5063806;28;20025;-80
2023/07/19 09:42:35;;;;;;;3.78;2.10;;;21.50;95.40;;;;;;5071061;28;20107;-79
2023/07/19 09:45:02;;;;;;;6.85;2.05;;;21.50;95.00;;;;;;5066847;28;20022;-80
2023/07/19 09:47:31;;;;;;;5.22;1.70;;;21.50;95.20;;;;;;5073711;28;20027;-81
2023/07/19 09:49:57;;;;;;;5.22;1.85;;;21.50;94.90;;;;;;5069125;28;20036;-80
2023/07/19 09:52:25;;;;;;;2.78;1.55;;;21.50;95.00;;;;;;5070345;28;20024;-80
2023/07/19 09:54:52;;;;;;;4.25;1.73;;;21.50;94.70;;;;;;5064796;28;20047;-80
2023/07/19 09:57:18;;;;;;;6.82;1.52;;;21.50;94.90;;;;;;5060958;28;20031;-80
2023/07/19 09:59:46;;;;;;;2.75;1.80;;;21.50;94.60;;;;;;5060669;28;20038;-79
2023/07/19 10:02:12;;;;;;;5.50;1.90;;;21.50;94.80;;;;;;5074240;28;20020;-80
2023/07/19 10:04:39;;;;;;;3.85;1.67;;;21.50;94.80;;;;;;5080715;28;20094;-80
2023/07/19 10:07:19;;;;;;;3.63;1.90;;;21.40;94.50;;;;;;5069314;28;20087;-79
2023/07/19 10:09:46;;;;;;;2.97;1.70;;;21.60;95.00;;;;;;5066733;28;20031;-80
2023/07/19 10:12:17;;;;;;;5.32;1.60;;;21.60;95.00;;;;;;5056822;28;20031;-80
2023/07/19 10:15:04;;;;;;;10.98;1.55;;;21.60;95.00;;;;;;5055073;28;20025;-80
2023/07/19 10:17:41;;;;;;;5.03;1.70;;;21.50;95.00;;;;;;5076295;28;20032;-81
2023/07/19 10:20:14;;;;;;;7.53;1.95;;;21.60;94.80;;;;;;5073178;28;20179;-80
2023/07/19 10:22:51;;;;;;;6.45;1.65;;;21.60;94.90;;;;;;5069333;28;20028;-80
2023/07/19 10:25:22;;;;;;;6.05;1.60;;;21.50;94.90;;;;;;5067876;28;20414;-79
2023/07/19 10:28:08;;;;;;;3.67;2.05;;;21.50;94.40;;;;;;5063582;28;20027;-80
2023/07/19 10:30:54;;;;;;;7.45;2.38;;;21.60;94.70;;;;;;5058486;28;20020;-80
2023/07/19 10:33:23;;;;;;;5.68;2.20;;;21.50;94.30;;;;;;5065203;28;20020;-80
2023/07/19 10:35:51;;;;;;;3.05;1.77;;;21.50;94.30;;;;;;5078136;28;20051;-80
2023/07/19 10:38:22;;;;;;;8.23;2.10;;;21.60;94.40;;;;;;5053677;28;20083;-80
2023/07/19 10:40:59;;;;;;;10.18;2.03;;;21.60;94.50;;;;;;5054686;28;20020;-79
2023/07/19 10:43:30;;;;;;;6.70;2.10;;;21.60;93.90;;;;;;5058250;28;20474;-80
2023/07/19 10:45:59;;;;;;;6.90;2.03;;;21.60;94.10;;;;;;5058385;28;20105;-78
2023/07/19 10:48:29;;;;;;;4.13;1.98;;;21.60;94.10;;;;;;5070809;28;20024;-79
2023/07/19 10:51:05;;;;;;;4.43;2.22;;;21.60;94.10;;;;;;5074504;28;20374;-79
2023/07/19 10:53:46;;;;;;;10.07;2.00;;;21.60;94.60;;;;;;5044497;28;20548;-80
2023/07/19 10:56:13;;;;;;;6.93;2.45;;;21.60;94.60;;;;;;5067701;28;20020;-79
2023/07/19 10:58:39;;;;;;;14.60;2.70;;;21.60;94.40;;;;;;5059063;28;20025;-80
2023/07/19 11:01:05;;;;;;;4.43;1.83;;;21.60;94.40;;;;;;5065556;28;20038;-80
2023/07/19 11:03:31;;;;;;;8.15;2.58;;;21.70;94.70;;;;;;5067128;28;20021;-80
2023/07/19 11:05:58;;;;;;;9.70;2.50;;;21.60;94.60;;;;;;5066010;28;20027;-80
2023/07/19 11:08:28;;;;;;;3.28;2.03;;;21.70;94.50;;;;;;5072476;28;20063;-80
2023/07/19 11:10:57;;;;;;;4.63;2.05;;;21.70;94.70;;;;;;5068245;28;20025;-80
2023/07/19 11:13:24;;;;;;;6.78;2.20;;;21.70;94.30;;;;;;5070374;28;20361;-80
2023/07/19 11:15:52;;;;;;;7.85;2.13;;;21.60;94.30;;;;;;5072159;28;20148;-79
2023/07/19 11:18:27;;;;;;;4.63;2.60;;;21.60;94.20;;;;;;5066217;28;20078;-80
2023/07/19 11:20:53;;;;;;;5.00;2.55;;;21.70;94.30;;;;;;5069744;28;20040;-80
2023/07/19 11:23:19;;;;;;;6.93;2.60;;;21.70;94.30;;;;;;5069602;28;20039;-80
2023/07/19 11:25:46;;;;;;;8.43;2.47;;;21.70;94.40;;;;;;5065654;28;20521;-80
2023/07/19 11:28:13;;;;;;;4.13;2.28;;;21.70;94.30;;;;;;5066670;28;20040;-80
2023/07/19 11:30:40;;;;;;;9.48;2.40;;;21.70;94.40;;;;;;5063233;28;20020;-80
2023/07/19 11:33:08;;;;;;;12.60;2.88;;;21.70;94.50;;;;;;5065723;28;20066;-80
2023/07/19 11:35:34;;;;;;;5.63;2.25;;;21.70;94.60;;;;;;5062238;28;20362;-80
2023/07/19 11:37:59;;;;;;;4.38;2.42;;;21.70;94.20;;;;;;5061732;28;20020;-81
2023/07/19 11:40:25;;;;;;;7.45;2.47;;;21.70;94.30;;;;;;5063491;28;20025;-80
2023/07/19 11:42:57;;;;;;;8.85;2.15;;;21.70;94.20;;;;;;5065409;28;20024;-80
2023/07/19 11:45:25;;;;;;;6.10;2.50;;;21.70;94.10;;;;;;5061632;28;20032;-80
2023/07/19 11:47:58;;;;;;;9.23;3.05;;;21.70;94.30;;;;;;5066547;28;20033;-80
2023/07/19 11:50:24;;;;;;;5.05;3.13;;;21.70;94.20;;;;;;5064280;28;20021;-80
2023/07/19 11:53:04;;;;;;;7.50;2.97;;;21.80;94.30;;;;;;5063273;28;20017;-80
2023/07/19 11:55:34;;;;;;;7.57;2.83;;;21.80;94.40;;;;;;5041665;28;20029;-80
2023/07/19 11:58:02;;;;;;;7.80;3.17;;;21.70;94.10;;;;;;5063584;28;20013;-80
2023/07/19 12:00:31;;;;;;;16.48;2.60;;;21.80;94.30;;;;;;5062060;28;20016;-79
2023/07/19 12:02:58;;;;;;;10.05;2.38;;;21.80;94.10;;;;;;5061146;28;20028;-80
2023/07/19 12:05:24;;;;;;;7.57;2.33;;;21.80;93.90;;;;;;5066968;28;20032;-80
2023/07/19 12:07:51;;;;;;;6.50;2.65;;;21.80;93.90;;;;;;5059565;28;20039;-80
2023/07/19 12:10:18;;;;;;;7.85;2.58;;;21.80;93.90;;;;;;5064405;28;20025;-81
2023/07/19 12:12:45;;;;;;;9.07;2.42;;;21.80;94.10;;;;;;5041087;28;20022;-80
2023/07/19 12:15:11;;;;;;;7.25;2.80;;;21.80;94.10;;;;;;5061001;28;20540;-81
2023/07/19 12:17:37;;;;;;;5.30;2.72;;;21.80;93.90;;;;;;5057765;28;20025;-79
2023/07/19 12:20:04;;;;;;;10.40;2.83;;;21.80;93.90;;;;;;5064796;28;20032;-81
2023/07/19 12:22:30;;;;;;;5.90;2.70;;;21.80;94.00;;;;;;5055663;28;20029;-81
2023/07/19 12:24:58;;;;;;;4.93;2.75;;;21.80;94.00;;;;;;5035670;28;20023;-80
2023/07/19 12:27:24;;;;;;;8.15;2.58;;;21.80;94.10;;;;;;5037744;28;20025;-81
2023/07/19 12:29:50;;;;;;;8.52;2.85;;;21.80;94.00;;;;;;5026992;28;20064;-80
2023/07/19 12:32:16;;;;;;;10.15;2.40;;;21.80;93.90;;;;;;5021511;28;20029;-80
2023/07/19 12:34:44;;;;;;;7.32;3.08;;;21.80;93.80;;;;;;5039598;28;20021;-79
2023/07/19 12:37:10;;;;;;;3.70;2.63;;;21.80;93.80;;;;;;5047291;28;20079;-80
2023/07/19 12:39:36;;;;;;;4.47;2.65;;;21.80;93.80;;;;;;5033127;28;20024;-80